sensor_id;sensor_type;location;lat;lon;timestamp;P1;durP1;ratioP1;P2;durP2;ratioP2
84042;SDS011;74129;52.540;13.416;2023-12-04T00:02:22;23.50;;;12.20;;
84042;SDS011;74129;52.540;13.416;2023-12-04T00:04:48;21.10;;;10.40;;
84042;SDS011;74129;52.540;13.416;2023-12-04T00:07:15;19.60;;;9.90;;
84042;SDS011;74129;52.540;13.416;2023-12-04T00:09:41;22.70;;;11.70;;
84042;SDS011;74129;52.540;13.416;2023-12-04T00:12:08;22.70;;;11.10;;
84042;SDS011;74129;52.540;13.416;2023-12-04T00:14:34;21.30;;;11.70;;
84042;SDS011;74129;52.540;13.416;2023-12-04T00:17:00;21.60;;;11.90;;
84042;SDS011;74129;52.540;13.416;2023-12-04T00:19:27;21.00;;;11.60;;
84042;SDS011;74129;52.540;13.416;2023-12-04T00:21:53;26.40;;;13.30;;
84042;SDS011;74129;52.540;13.416;2023-12-04T00:24:20;23.10;;;12.20;;
84042;SDS011;74129;52.540;13.416;2023-12-04T00:26:46;23.50;;;11.60;;
84042;SDS011;74129;52.540;13.416;2023-12-04T00:29:12;24.60;;;12.90;;
84042;SDS011;74129;52.540;13.416;2023-12-04T00:31:39;24.90;;;13.30;;
84042;SDS011;74129;52.540;13.416;2023-12-04T00:34:06;28.50;;;13.40;;
84042;SDS011;74129;52.540;13.416;2023-12-04T00:36:32;22.00;;;11.80;;
84042;SDS011;74129;52.540;13.416;2023-12-04T00:38:58;23.40;;;12.20;;
84042;SDS011;74129;52.540;13.416;2023-12-04T00:41:25;22.20;;;12.00;;
84042;SDS011;74129;52.540;13.416;2023-12-04T00:43:51;20.70;;;11.10;;
84042;SDS011;74129;52.540;13.416;2023-12-04T00:46:18;21.60;;;11.30;;
84042;SDS011;74129;52.540;13.416;2023-12-04T00:48:44;17.70;;;10.10;;
84042;SDS011;74129;52.540;13.416;2023-12-04T00:51:12;23.70;;;12.00;;
84042;SDS011;74129;52.540;13.416;2023-12-04T00:53:38;25.20;;;13.50;;
84042;SDS011;74129;52.540;13.416;2023-12-04T00:56:05;23.30;;;11.70;;
84042;SDS011;74129;52.540;13.416;2023-12-04T00:58:32;24.10;;;12.70;;
84042;SDS011;74129;52.540;13.416;2023-12-04T01:00:58;21.30;;;12.00;;
84042;SDS011;74129;52.540;13.416;2023-12-04T01:03:25;21.60;;;12.00;;
84042;SDS011;74129;52.540;13.416;2023-12-04T01:05:52;21.00;;;12.10;;
84042;SDS011;74129;52.540;13.416;2023-12-04T01:08:19;16.70;;;10.40;;
84042;SDS011;74129;52.540;13.416;2023-12-04T01:10:45;24.00;;;12.10;;
84042;SDS011;74129;52.540;13.416;2023-12-04T01:13:12;24.10;;;13.00;;
84042;SDS011;74129;52.540;13.416;2023-12-04T01:15:38;22.90;;;12.80;;
84042;SDS011;74129;52.540;13.416;2023-12-04T01:18:05;23.90;;;12.40;;
84042;SDS011;74129;52.540;13.416;2023-12-04T01:20:31;23.00;;;11.40;;
84042;SDS011;74129;52.540;13.416;2023-12-04T01:22:59;24.60;;;12.70;;
84042;SDS011;74129;52.540;13.416;2023-12-04T01:25:25;22.30;;;11.20;;
84042;SDS011;74129;52.540;13.416;2023-12-04T01:27:52;23.40;;;11.60;;
84042;SDS011;74129;52.540;13.416;2023-12-04T01:30:18;26.30;;;12.70;;
84042;SDS011;74129;52.540;13.416;2023-12-04T01:32:45;22.80;;;12.00;;
84042;SDS011;74129;52.540;13.416;2023-12-04T01:35:11;22.70;;;12.20;;
84042;SDS011;74129;52.540;13.416;2023-12-04T01:37:38;22.40;;;11.80;;
84042;SDS011;74129;52.540;13.416;2023-12-04T01:40:05;27.50;;;13.00;;
84042;SDS011;74129;52.540;13.416;2023-12-04T01:42:33;22.70;;;11.80;;
84042;SDS011;74129;52.540;13.416;2023-12-04T01:44:59;28.30;;;13.00;;
84042;SDS011;74129;52.540;13.416;2023-12-04T01:47:26;21.40;;;11.20;;
84042;SDS011;74129;52.540;13.416;2023-12-04T01:49:52;25.00;;;13.80;;
84042;SDS011;74129;52.540;13.416;2023-12-04T01:52:18;20.50;;;11.30;;
84042;SDS011;74129;52.540;13.416;2023-12-04T01:54:45;22.90;;;12.30;;
84042;SDS011;74129;52.540;13.416;2023-12-04T01:57:12;23.40;;;12.50;;
84042;SDS011;74129;52.540;13.416;2023-12-04T01:59:38;23.60;;;11.90;;
84042;SDS011;74129;52.540;13.416;2023-12-04T02:02:05;23.40;;;13.00;;
84042;SDS011;74129;52.540;13.416;2023-12-04T02:04:31;23.70;;;12.00;;
84042;SDS011;74129;52.540;13.416;2023-12-04T02:06:59;26.00;;;12.20;;
84042;SDS011;74129;52.540;13.416;2023-12-04T02:09:25;27.60;;;12.60;;
84042;SDS011;74129;52.540;13.416;2023-12-04T02:11:53;19.70;;;11.70;;
84042;SDS011;74129;52.540;13.416;2023-12-04T02:14:19;23.80;;;11.30;;
84042;SDS011;74129;52.540;13.416;2023-12-04T02:16:45;23.40;;;12.20;;
84042;SDS011;74129;52.540;13.416;2023-12-04T02:19:13;23.00;;;11.80;;
84042;SDS011;74129;52.540;13.416;2023-12-04T02:21:40;20.30;;;11.20;;
84042;SDS011;74129;52.540;13.416;2023-12-04T02:24:06;24.10;;;11.90;;
84042;SDS011;74129;52.540;13.416;2023-12-04T02:26:45;24.70;;;12.10;;
84042;SDS011;74129;52.540;13.416;2023-12-04T02:29:21;21.10;;;11.50;;
84042;SDS011;74129;52.540;13.416;2023-12-04T02:31:59;22.10;;;12.30;;
84042;SDS011;74129;52.540;13.416;2023-12-04T02:34:30;24.40;;;12.00;;
84042;SDS011;74129;52.540;13.416;2023-12-04T02:36:59;26.50;;;13.30;;
84042;SDS011;74129;52.540;13.416;2023-12-04T02:39:29;22.70;;;11.90;;
84042;SDS011;74129;52.540;13.416;2023-12-04T02:41:55;20.90;;;11.20;;
84042;SDS011;74129;52.540;13.416;2023-12-04T02:44:21;23.50;;;11.80;;
84042;SDS011;74129;52.540;13.416;2023-12-04T02:46:48;24.40;;;12.00;;
84042;SDS011;74129;52.540;13.416;2023-12-04T02:49:14;20.60;;;11.40;;
84042;SDS011;74129;52.540;13.416;2023-12-04T02:51:41;24.20;;;11.50;;
84042;SDS011;74129;52.540;13.416;2023-12-04T02:54:08;18.80;;;11.00;;
84042;SDS011;74129;52.540;13.416;2023-12-04T02:56:34;22.90;;;11.50;;
84042;SDS011;74129;52.540;13.416;2023-12-04T02:59:00;20.40;;;11.00;;
84042;SDS011;74129;52.540;13.416;2023-12-04T03:01:27;21.90;;;11.20;;
84042;SDS011;74129;52.540;13.416;2023-12-04T03:03:53;21.90;;;11.30;;
84042;SDS011;74129;52.540;13.416;2023-12-04T03:06:20;19.10;;;11.60;;
84042;SDS011;74129;52.540;13.416;2023-12-04T03:08:46;21.00;;;11.60;;
84042;SDS011;74129;52.540;13.416;2023-12-04T03:11:12;20.90;;;12.20;;
84042;SDS011;74129;52.540;13.416;2023-12-04T03:13:39;20.40;;;11.40;;
84042;SDS011;74129;52.540;13.416;2023-12-04T03:16:06;24.50;;;12.00;;
84042;SDS011;74129;52.540;13.416;2023-12-04T03:18:32;20.10;;;10.80;;
84042;SDS011;74129;52.540;13.416;2023-12-04T03:20:59;21.40;;;11.60;;
84042;SDS011;74129;52.540;13.416;2023-12-04T03:23:25;20.30;;;11.60;;
84042;SDS011;74129;52.540;13.416;2023-12-04T03:25:52;19.70;;;11.30;;
84042;SDS011;74129;52.540;13.416;2023-12-04T03:28:18;22.70;;;11.50;;
84042;SDS011;74129;52.540;13.416;2023-12-04T03:30:45;20.60;;;11.10;;
84042;SDS011;74129;52.540;13.416;2023-12-04T03:33:11;21.60;;;10.90;;
84042;SDS011;74129;52.540;13.416;2023-12-04T03:35:38;22.00;;;11.60;;
84042;SDS011;74129;52.540;13.416;2023-12-04T03:38:04;20.70;;;11.60;;
84042;SDS011;74129;52.540;13.416;2023-12-04T03:40:31;20.40;;;12.10;;
84042;SDS011;74129;52.540;13.416;2023-12-04T03:42:57;20.50;;;11.50;;
84042;SDS011;74129;52.540;13.416;2023-12-04T03:45:24;22.80;;;11.20;;
84042;SDS011;74129;52.540;13.416;2023-12-04T03:47:50;18.20;;;10.80;;
84042;SDS011;74129;52.540;13.416;2023-12-04T03:50:17;20.10;;;10.70;;
84042;SDS011;74129;52.540;13.416;2023-12-04T03:52:43;17.40;;;9.90;;
84042;SDS011;74129;52.540;13.416;2023-12-04T03:55:09;23.10;;;10.60;;
84042;SDS011;74129;52.540;13.416;2023-12-04T03:57:36;18.80;;;10.40;;
84042;SDS011;74129;52.540;13.416;2023-12-04T04:00:02;21.30;;;10.90;;
84042;SDS011;74129;52.540;13.416;2023-12-04T04:02:30;20.20;;;11.00;;
84042;SDS011;74129;52.540;13.416;2023-12-04T04:04:56;21.70;;;12.10;;
84042;SDS011;74129;52.540;13.416;2023-12-04T04:07:23;18.20;;;10.40;;
84042;SDS011;74129;52.540;13.416;2023-12-04T04:09:49;16.60;;;10.10;;
84042;SDS011;74129;52.540;13.416;2023-12-04T04:12:16;20.10;;;11.40;;
84042;SDS011;74129;52.540;13.416;2023-12-04T04:14:42;22.30;;;11.40;;
84042;SDS011;74129;52.540;13.416;2023-12-04T04:17:08;20.10;;;10.50;;
84042;SDS011;74129;52.540;13.416;2023-12-04T04:19:35;15.60;;;9.50;;
84042;SDS011;74129;52.540;13.416;2023-12-04T04:22:02;21.00;;;11.30;;
84042;SDS011;74129;52.540;13.416;2023-12-04T04:24:28;16.40;;;9.40;;
84042;SDS011;74129;52.540;13.416;2023-12-04T04:26:55;19.40;;;10.10;;
84042;SDS011;74129;52.540;13.416;2023-12-04T04:29:21;20.70;;;11.10;;
84042;SDS011;74129;52.540;13.416;2023-12-04T04:31:47;21.50;;;10.80;;
84042;SDS011;74129;52.540;13.416;2023-12-04T04:34:14;18.00;;;10.10;;
84042;SDS011;74129;52.540;13.416;2023-12-04T04:36:40;19.10;;;10.00;;
84042;SDS011;74129;52.540;13.416;2023-12-04T04:39:07;20.90;;;11.80;;
84042;SDS011;74129;52.540;13.416;2023-12-04T04:41:33;20.10;;;11.00;;
84042;SDS011;74129;52.540;13.416;2023-12-04T04:43:59;19.50;;;10.10;;
84042;SDS011;74129;52.540;13.416;2023-12-04T04:46:26;20.70;;;9.80;;
84042;SDS011;74129;52.540;13.416;2023-12-04T04:48:54;22.70;;;10.10;;
84042;SDS011;74129;52.540;13.416;2023-12-04T04:51:21;19.30;;;10.80;;
84042;SDS011;74129;52.540;13.416;2023-12-04T04:53:47;19.40;;;10.40;;
84042;SDS011;74129;52.540;13.416;2023-12-04T04:56:15;19.10;;;10.40;;
84042;SDS011;74129;52.540;13.416;2023-12-04T04:58:41;20.40;;;9.90;;
84042;SDS011;74129;52.540;13.416;2023-12-04T05:01:08;17.70;;;10.60;;
84042;SDS011;74129;52.540;13.416;2023-12-04T05:03:34;20.30;;;10.00;;
84042;SDS011;74129;52.540;13.416;2023-12-04T05:06:01;19.20;;;8.70;;
84042;SDS011;74129;52.540;13.416;2023-12-04T05:08:27;19.80;;;10.10;;
84042;SDS011;74129;52.540;13.416;2023-12-04T05:10:54;18.70;;;9.20;;
84042;SDS011;74129;52.540;13.416;2023-12-04T05:13:20;19.80;;;10.20;;
84042;SDS011;74129;52.540;13.416;2023-12-04T05:15:46;20.50;;;10.70;;
84042;SDS011;74129;52.540;13.416;2023-12-04T05:18:13;19.70;;;10.20;;
84042;SDS011;74129;52.540;13.416;2023-12-04T05:20:40;17.60;;;10.10;;
84042;SDS011;74129;52.540;13.416;2023-12-04T05:23:06;18.60;;;10.40;;
84042;SDS011;74129;52.540;13.416;2023-12-04T05:25:33;22.50;;;13.00;;
84042;SDS011;74129;52.540;13.416;2023-12-04T05:27:59;27.40;;;18.70;;
84042;SDS011;74129;52.540;13.416;2023-12-04T05:30:26;54.10;;;28.30;;
84042;SDS011;74129;52.540;13.416;2023-12-04T05:32:52;181.90;;;86.00;;
84042;SDS011;74129;52.540;13.416;2023-12-04T05:35:18;130.60;;;58.90;;
84042;SDS011;74129;52.540;13.416;2023-12-04T05:37:45;114.80;;;53.00;;
84042;SDS011;74129;52.540;13.416;2023-12-04T05:40:11;44.70;;;23.00;;
84042;SDS011;74129;52.540;13.416;2023-12-04T05:42:38;28.60;;;14.50;;
84042;SDS011;74129;52.540;13.416;2023-12-04T05:45:04;21.40;;;12.20;;
84042;SDS011;74129;52.540;13.416;2023-12-04T05:47:31;20.40;;;11.30;;
84042;SDS011;74129;52.540;13.416;2023-12-04T05:49:57;20.40;;;10.50;;
84042;SDS011;74129;52.540;13.416;2023-12-04T05:52:24;20.40;;;10.40;;
84042;SDS011;74129;52.540;13.416;2023-12-04T05:54:50;19.30;;;10.70;;
84042;SDS011;74129;52.540;13.416;2023-12-04T05:57:17;22.10;;;11.30;;
84042;SDS011;74129;52.540;13.416;2023-12-04T05:59:43;21.60;;;11.40;;
84042;SDS011;74129;52.540;13.416;2023-12-04T06:02:09;17.50;;;10.10;;
84042;SDS011;74129;52.540;13.416;2023-12-04T06:04:36;21.40;;;11.20;;
84042;SDS011;74129;52.540;13.416;2023-12-04T06:07:02;20.70;;;10.30;;
84042;SDS011;74129;52.540;13.416;2023-12-04T06:09:29;18.40;;;11.00;;
84042;SDS011;74129;52.540;13.416;2023-12-04T06:11:55;20.20;;;10.60;;
84042;SDS011;74129;52.540;13.416;2023-12-04T06:14:21;18.50;;;9.80;;
84042;SDS011;74129;52.540;13.416;2023-12-04T06:16:48;19.30;;;10.50;;
84042;SDS011;74129;52.540;13.416;2023-12-04T06:19:14;20.00;;;10.10;;
84042;SDS011;74129;52.540;13.416;2023-12-04T06:21:41;21.90;;;10.30;;
84042;SDS011;74129;52.540;13.416;2023-12-04T06:24:07;16.10;;;10.20;;
84042;SDS011;74129;52.540;13.416;2023-12-04T06:26:35;19.40;;;9.40;;
84042;SDS011;74129;52.540;13.416;2023-12-04T06:29:05;18.10;;;10.00;;
84042;SDS011;74129;52.540;13.416;2023-12-04T06:31:31;17.60;;;10.10;;
84042;SDS011;74129;52.540;13.416;2023-12-04T06:33:58;18.30;;;10.10;;
84042;SDS011;74129;52.540;13.416;2023-12-04T06:36:25;17.40;;;10.00;;
84042;SDS011;74129;52.540;13.416;2023-12-04T06:38:55;16.80;;;9.70;;
84042;SDS011;74129;52.540;13.416;2023-12-04T06:41:22;15.50;;;8.60;;
84042;SDS011;74129;52.540;13.416;2023-12-04T06:43:49;18.40;;;10.00;;
84042;SDS011;74129;52.540;13.416;2023-12-04T06:46:15;18.10;;;10.50;;
84042;SDS011;74129;52.540;13.416;2023-12-04T06:48:45;21.00;;;10.10;;
84042;SDS011;74129;52.540;13.416;2023-12-04T06:51:14;17.20;;;10.40;;
84042;SDS011;74129;52.540;13.416;2023-12-04T06:53:40;19.40;;;10.10;;
84042;SDS011;74129;52.540;13.416;2023-12-04T06:56:07;18.00;;;9.50;;
84042;SDS011;74129;52.540;13.416;2023-12-04T06:58:34;16.50;;;9.40;;
84042;SDS011;74129;52.540;13.416;2023-12-04T07:01:00;15.30;;;9.30;;
84042;SDS011;74129;52.540;13.416;2023-12-04T07:03:27;14.30;;;8.50;;
84042;SDS011;74129;52.540;13.416;2023-12-04T07:05:53;15.90;;;9.40;;
84042;SDS011;74129;52.540;13.416;2023-12-04T07:08:20;18.50;;;9.40;;
84042;SDS011;74129;52.540;13.416;2023-12-04T07:10:46;18.90;;;10.30;;
84042;SDS011;74129;52.540;13.416;2023-12-04T07:13:13;17.70;;;10.40;;
84042;SDS011;74129;52.540;13.416;2023-12-04T07:15:40;18.00;;;9.60;;
84042;SDS011;74129;52.540;13.416;2023-12-04T07:18:06;15.90;;;9.10;;
84042;SDS011;74129;52.540;13.416;2023-12-04T07:20:32;16.90;;;9.20;;
84042;SDS011;74129;52.540;13.416;2023-12-04T07:22:59;15.20;;;9.20;;
84042;SDS011;74129;52.540;13.416;2023-12-04T07:25:25;20.20;;;10.30;;
84042;SDS011;74129;52.540;13.416;2023-12-04T07:27:52;18.50;;;10.60;;
84042;SDS011;74129;52.540;13.416;2023-12-04T07:30:18;20.00;;;10.20;;
84042;SDS011;74129;52.540;13.416;2023-12-04T07:32:46;17.50;;;10.40;;
84042;SDS011;74129;52.540;13.416;2023-12-04T07:35:13;20.60;;;9.90;;
84042;SDS011;74129;52.540;13.416;2023-12-04T07:37:39;18.20;;;10.00;;
84042;SDS011;74129;52.540;13.416;2023-12-04T07:40:06;16.60;;;9.50;;
84042;SDS011;74129;52.540;13.416;2023-12-04T07:42:34;16.80;;;9.00;;
84042;SDS011;74129;52.540;13.416;2023-12-04T07:45:01;20.70;;;10.20;;
84042;SDS011;74129;52.540;13.416;2023-12-04T07:47:27;17.30;;;9.00;;
84042;SDS011;74129;52.540;13.416;2023-12-04T07:49:53;20.10;;;10.40;;
84042;SDS011;74129;52.540;13.416;2023-12-04T07:52:20;18.80;;;10.50;;
84042;SDS011;74129;52.540;13.416;2023-12-04T07:54:46;19.20;;;10.80;;
84042;SDS011;74129;52.540;13.416;2023-12-04T07:57:13;16.70;;;8.60;;
84042;SDS011;74129;52.540;13.416;2023-12-04T07:59:39;14.70;;;9.00;;
84042;SDS011;74129;52.540;13.416;2023-12-04T08:02:06;17.30;;;9.30;;
84042;SDS011;74129;52.540;13.416;2023-12-04T08:04:32;19.50;;;10.60;;
84042;SDS011;74129;52.540;13.416;2023-12-04T08:06:58;17.90;;;9.10;;
84042;SDS011;74129;52.540;13.416;2023-12-04T08:09:25;13.30;;;8.80;;
84042;SDS011;74129;52.540;13.416;2023-12-04T08:11:52;17.00;;;9.60;;
84042;SDS011;74129;52.540;13.416;2023-12-04T08:14:18;17.80;;;9.30;;
84042;SDS011;74129;52.540;13.416;2023-12-04T08:16:44;15.30;;;9.10;;
84042;SDS011;74129;52.540;13.416;2023-12-04T08:19:11;15.10;;;9.30;;
84042;SDS011;74129;52.540;13.416;2023-12-04T08:21:37;15.40;;;8.60;;
84042;SDS011;74129;52.540;13.416;2023-12-04T08:24:04;16.40;;;9.00;;
84042;SDS011;74129;52.540;13.416;2023-12-04T08:26:30;18.70;;;9.60;;
84042;SDS011;74129;52.540;13.416;2023-12-04T08:28:57;17.70;;;9.70;;
84042;SDS011;74129;52.540;13.416;2023-12-04T08:31:23;17.60;;;9.10;;
84042;SDS011;74129;52.540;13.416;2023-12-04T08:33:49;15.80;;;9.20;;
84042;SDS011;74129;52.540;13.416;2023-12-04T08:36:16;17.80;;;8.80;;
84042;SDS011;74129;52.540;13.416;2023-12-04T08:38:42;15.70;;;9.40;;
84042;SDS011;74129;52.540;13.416;2023-12-04T08:41:09;16.20;;;9.00;;
84042;SDS011;74129;52.540;13.416;2023-12-04T08:43:35;16.40;;;9.90;;
84042;SDS011;74129;52.540;13.416;2023-12-04T08:46:02;18.40;;;9.90;;
84042;SDS011;74129;52.540;13.416;2023-12-04T08:48:28;15.70;;;9.20;;
84042;SDS011;74129;52.540;13.416;2023-12-04T08:50:55;16.10;;;9.40;;
84042;SDS011;74129;52.540;13.416;2023-12-04T08:53:22;15.80;;;8.20;;
84042;SDS011;74129;52.540;13.416;2023-12-04T08:55:49;15.00;;;9.20;;
84042;SDS011;74129;52.540;13.416;2023-12-04T08:58:15;14.10;;;8.20;;
84042;SDS011;74129;52.540;13.416;2023-12-04T09:00:41;17.10;;;9.60;;
84042;SDS011;74129;52.540;13.416;2023-12-04T09:03:09;47.20;;;22.70;;
84042;SDS011;74129;52.540;13.416;2023-12-04T09:05:39;79.30;;;38.70;;
84042;SDS011;74129;52.540;13.416;2023-12-04T09:08:06;26.30;;;13.60;;
84042;SDS011;74129;52.540;13.416;2023-12-04T09:10:33;20.40;;;10.70;;
84042;SDS011;74129;52.540;13.416;2023-12-04T09:12:59;18.50;;;10.00;;
84042;SDS011;74129;52.540;13.416;2023-12-04T09:15:26;25.90;;;14.30;;
84042;SDS011;74129;52.540;13.416;2023-12-04T09:17:53;31.40;;;19.50;;
84042;SDS011;74129;52.540;13.416;2023-12-04T09:20:19;51.10;;;35.80;;
84042;SDS011;74129;52.540;13.416;2023-12-04T09:22:45;60.10;;;41.30;;
84042;SDS011;74129;52.540;13.416;2023-12-04T09:25:12;51.90;;;38.90;;
84042;SDS011;74129;52.540;13.416;2023-12-04T09:27:39;33.60;;;25.90;;
84042;SDS011;74129;52.540;13.416;2023-12-04T09:30:05;22.50;;;14.10;;
84042;SDS011;74129;52.540;13.416;2023-12-04T09:32:32;47.10;;;37.90;;
84042;SDS011;74129;52.540;13.416;2023-12-04T09:34:58;23.40;;;15.50;;
84042;SDS011;74129;52.540;13.416;2023-12-04T09:37:25;17.80;;;9.70;;
84042;SDS011;74129;52.540;13.416;2023-12-04T09:39:51;15.70;;;9.30;;
84042;SDS011;74129;52.540;13.416;2023-12-04T09:42:19;15.60;;;9.10;;
84042;SDS011;74129;52.540;13.416;2023-12-04T09:44:46;16.10;;;8.40;;
84042;SDS011;74129;52.540;13.416;2023-12-04T09:47:18;17.00;;;9.00;;
84042;SDS011;74129;52.540;13.416;2023-12-04T09:49:47;16.30;;;9.40;;
84042;SDS011;74129;52.540;13.416;2023-12-04T09:52:17;15.50;;;9.20;;
84042;SDS011;74129;52.540;13.416;2023-12-04T09:54:45;12.80;;;8.40;;
84042;SDS011;74129;52.540;13.416;2023-12-04T09:57:12;16.00;;;8.80;;
84042;SDS011;74129;52.540;13.416;2023-12-04T09:59:39;16.20;;;9.30;;
84042;SDS011;74129;52.540;13.416;2023-12-04T10:02:06;16.00;;;9.10;;
84042;SDS011;74129;52.540;13.416;2023-12-04T10:04:32;13.50;;;8.00;;
84042;SDS011;74129;52.540;13.416;2023-12-04T10:07:00;17.70;;;9.20;;
84042;SDS011;74129;52.540;13.416;2023-12-04T10:09:26;16.50;;;9.20;;
84042;SDS011;74129;52.540;13.416;2023-12-04T10:11:55;19.70;;;10.20;;
84042;SDS011;74129;52.540;13.416;2023-12-04T10:14:22;25.40;;;15.80;;
84042;SDS011;74129;52.540;13.416;2023-12-04T10:16:49;17.50;;;10.10;;
84042;SDS011;74129;52.540;13.416;2023-12-04T10:19:23;27.60;;;19.10;;
84042;SDS011;74129;52.540;13.416;2023-12-04T10:26:53;49.10;;;32.10;;
84042;SDS011;74129;52.540;13.416;2023-12-04T10:29:19;27.00;;;16.50;;
84042;SDS011;74129;52.540;13.416;2023-12-04T10:31:46;22.60;;;14.20;;
84042;SDS011;74129;52.540;13.416;2023-12-04T10:34:14;21.60;;;13.40;;
84042;SDS011;74129;52.540;13.416;2023-12-04T10:36:40;17.90;;;10.40;;
84042;SDS011;74129;52.540;13.416;2023-12-04T10:39:07;14.00;;;8.40;;
84042;SDS011;74129;52.540;13.416;2023-12-04T10:41:33;13.80;;;8.90;;
84042;SDS011;74129;52.540;13.416;2023-12-04T10:44:00;16.20;;;9.30;;
84042;SDS011;74129;52.540;13.416;2023-12-04T10:46:27;13.70;;;9.00;;
84042;SDS011;74129;52.540;13.416;2023-12-04T10:48:54;14.00;;;8.00;;
84042;SDS011;74129;52.540;13.416;2023-12-04T10:51:21;15.90;;;8.70;;
84042;SDS011;74129;52.540;13.416;2023-12-04T10:53:48;12.90;;;7.90;;
84042;SDS011;74129;52.540;13.416;2023-12-04T10:56:31;14.90;;;8.00;;
84042;SDS011;74129;52.540;13.416;2023-12-04T10:59:05;12.30;;;8.40;;
84042;SDS011;74129;52.540;13.416;2023-12-04T11:01:38;13.50;;;7.90;;
84042;SDS011;74129;52.540;13.416;2023-12-04T11:06:39;11.90;;;7.00;;
84042;SDS011;74129;52.540;13.416;2023-12-04T11:09:07;13.10;;;7.80;;
84042;SDS011;74129;52.540;13.416;2023-12-04T11:11:35;11.90;;;7.50;;
84042;SDS011;74129;52.540;13.416;2023-12-04T11:14:06;13.30;;;7.70;;
84042;SDS011;74129;52.540;13.416;2023-12-04T11:16:51;10.60;;;7.40;;
84042;SDS011;74129;52.540;13.416;2023-12-04T11:19:23;10.00;;;6.30;;
84042;SDS011;74129;52.540;13.416;2023-12-04T11:21:57;13.10;;;7.30;;
84042;SDS011;74129;52.540;13.416;2023-12-04T11:24:24;14.40;;;8.20;;
84042;SDS011;74129;52.540;13.416;2023-12-04T11:26:51;10.90;;;6.60;;
84042;SDS011;74129;52.540;13.416;2023-12-04T11:29:18;13.50;;;7.90;;
84042;SDS011;74129;52.540;13.416;2023-12-04T11:31:46;13.00;;;7.50;;
84042;SDS011;74129;52.540;13.416;2023-12-04T11:34:13;11.20;;;6.70;;
84042;SDS011;74129;52.540;13.416;2023-12-04T11:36:39;11.50;;;7.10;;
84042;SDS011;74129;52.540;13.416;2023-12-04T11:39:09;13.10;;;7.30;;
84042;SDS011;74129;52.540;13.416;2023-12-04T11:41:37;12.70;;;7.20;;
84042;SDS011;74129;52.540;13.416;2023-12-04T11:44:03;14.40;;;7.20;;
84042;SDS011;74129;52.540;13.416;2023-12-04T11:46:54;10.80;;;6.00;;
84042;SDS011;74129;52.540;13.416;2023-12-04T11:51:51;15.20;;;6.70;;
84042;SDS011;74129;52.540;13.416;2023-12-04T11:54:18;14.10;;;7.70;;
84042;SDS011;74129;52.540;13.416;2023-12-04T11:56:56;12.80;;;7.30;;
84042;SDS011;74129;52.540;13.416;2023-12-04T11:59:24;12.40;;;7.80;;
84042;SDS011;74129;52.540;13.416;2023-12-04T12:01:55;13.90;;;8.40;;
84042;SDS011;74129;52.540;13.416;2023-12-04T12:04:23;12.00;;;7.10;;
84042;SDS011;74129;52.540;13.416;2023-12-04T12:06:49;12.50;;;7.30;;
84042;SDS011;74129;52.540;13.416;2023-12-04T12:09:16;15.60;;;7.50;;
84042;SDS011;74129;52.540;13.416;2023-12-04T12:11:43;11.00;;;7.00;;
84042;SDS011;74129;52.540;13.416;2023-12-04T12:14:10;12.10;;;7.30;;
84042;SDS011;74129;52.540;13.416;2023-12-04T12:16:36;13.50;;;7.90;;
84042;SDS011;74129;52.540;13.416;2023-12-04T12:19:03;11.80;;;6.70;;
84042;SDS011;74129;52.540;13.416;2023-12-04T12:21:29;10.20;;;6.90;;
84042;SDS011;74129;52.540;13.416;2023-12-04T12:23:56;13.40;;;7.90;;
84042;SDS011;74129;52.540;13.416;2023-12-04T12:26:22;13.50;;;7.50;;
84042;SDS011;74129;52.540;13.416;2023-12-04T12:28:49;10.50;;;6.70;;
84042;SDS011;74129;52.540;13.416;2023-12-04T12:31:16;12.20;;;7.20;;
84042;SDS011;74129;52.540;13.416;2023-12-04T12:33:42;10.80;;;6.40;;
84042;SDS011;74129;52.540;13.416;2023-12-04T12:36:09;13.10;;;8.10;;
84042;SDS011;74129;52.540;13.416;2023-12-04T12:38:36;11.00;;;7.20;;
84042;SDS011;74129;52.540;13.416;2023-12-04T12:41:07;11.80;;;7.00;;
84042;SDS011;74129;52.540;13.416;2023-12-04T12:43:34;12.60;;;7.50;;
84042;SDS011;74129;52.540;13.416;2023-12-04T12:46:01;13.60;;;7.40;;
84042;SDS011;74129;52.540;13.416;2023-12-04T12:48:29;10.90;;;6.90;;
84042;SDS011;74129;52.540;13.416;2023-12-04T12:50:55;12.40;;;7.60;;
84042;SDS011;74129;52.540;13.416;2023-12-04T12:53:22;11.30;;;6.80;;
84042;SDS011;74129;52.540;13.416;2023-12-04T12:55:49;11.30;;;6.90;;
84042;SDS011;74129;52.540;13.416;2023-12-04T12:58:16;11.50;;;7.10;;
84042;SDS011;74129;52.540;13.416;2023-12-04T13:00:46;11.80;;;6.90;;
84042;SDS011;74129;52.540;13.416;2023-12-04T13:03:14;11.60;;;6.80;;
84042;SDS011;74129;52.540;13.416;2023-12-04T13:05:41;11.80;;;7.20;;
84042;SDS011;74129;52.540;13.416;2023-12-04T13:08:07;11.50;;;7.40;;
84042;SDS011;74129;52.540;13.416;2023-12-04T13:10:34;11.30;;;7.00;;
84042;SDS011;74129;52.540;13.416;2023-12-04T13:13:00;11.90;;;7.50;;
84042;SDS011;74129;52.540;13.416;2023-12-04T13:15:27;12.10;;;7.50;;
84042;SDS011;74129;52.540;13.416;2023-12-04T13:17:53;11.80;;;7.90;;
84042;SDS011;74129;52.540;13.416;2023-12-04T13:20:19;9.70;;;6.40;;
84042;SDS011;74129;52.540;13.416;2023-12-04T13:22:46;13.60;;;6.50;;
84042;SDS011;74129;52.540;13.416;2023-12-04T13:25:12;10.90;;;6.60;;
84042;SDS011;74129;52.540;13.416;2023-12-04T13:27:39;13.00;;;7.20;;
84042;SDS011;74129;52.540;13.416;2023-12-04T13:30:06;11.70;;;7.00;;
84042;SDS011;74129;52.540;13.416;2023-12-04T13:32:35;14.80;;;7.50;;
84042;SDS011;74129;52.540;13.416;2023-12-04T13:35:02;11.50;;;6.70;;
84042;SDS011;74129;52.540;13.416;2023-12-04T13:37:31;14.40;;;8.50;;
84042;SDS011;74129;52.540;13.416;2023-12-04T13:39:59;12.90;;;7.10;;
84042;SDS011;74129;52.540;13.416;2023-12-04T13:42:32;10.70;;;6.80;;
84042;SDS011;74129;52.540;13.416;2023-12-04T13:45:18;13.20;;;7.70;;
84042;SDS011;74129;52.540;13.416;2023-12-04T13:47:48;10.10;;;6.30;;
84042;SDS011;74129;52.540;13.416;2023-12-04T13:50:15;12.70;;;7.50;;
84042;SDS011;74129;52.540;13.416;2023-12-04T13:52:43;12.60;;;7.90;;
84042;SDS011;74129;52.540;13.416;2023-12-04T13:55:09;11.70;;;7.00;;
84042;SDS011;74129;52.540;13.416;2023-12-04T13:57:47;11.90;;;7.20;;
84042;SDS011;74129;52.540;13.416;2023-12-04T14:00:25;11.50;;;6.80;;
84042;SDS011;74129;52.540;13.416;2023-12-04T14:02:52;9.80;;;6.40;;
84042;SDS011;74129;52.540;13.416;2023-12-04T14:05:19;13.30;;;7.50;;
84042;SDS011;74129;52.540;13.416;2023-12-04T14:07:48;10.60;;;6.70;;
84042;SDS011;74129;52.540;13.416;2023-12-04T14:10:15;13.00;;;7.80;;
84042;SDS011;74129;52.540;13.416;2023-12-04T14:12:41;11.50;;;7.10;;
84042;SDS011;74129;52.540;13.416;2023-12-04T14:15:08;13.50;;;7.10;;
84042;SDS011;74129;52.540;13.416;2023-12-04T14:17:35;13.10;;;7.40;;
84042;SDS011;74129;52.540;13.416;2023-12-04T14:20:01;12.70;;;7.40;;
84042;SDS011;74129;52.540;13.416;2023-12-04T14:22:35;13.70;;;7.70;;
84042;SDS011;74129;52.540;13.416;2023-12-04T14:25:01;12.10;;;7.00;;